sensor_id;sensor_type;location;lat;lon;timestamp;pressure;altitude;pressure_sealevel;temperature;humidity
70323;BME280;57735;56.264;43.898;2023-03-01T00:00:34;99196.09;;;-4.57;68.49
70323;BME280;57735;56.264;43.898;2023-03-01T00:03:04;99188.22;;;-4.55;68.41
70323;BME280;57735;56.264;43.898;2023-03-01T00:05:35;99185.41;;;-4.52;68.38
70323;BME280;57735;56.264;43.898;2023-03-01T00:08:05;99192.22;;;-4.49;68.24
70323;BME280;57735;56.264;43.898;2023-03-01T00:10:36;99191.47;;;-4.51;68.09
70323;BME280;57735;56.264;43.898;2023-03-01T00:13:06;99191.66;;;-4.54;68.39
70323;BME280;57735;56.264;43.898;2023-03-01T00:15:40;99189.41;;;-4.61;68.50
70323;BME280;57735;56.264;43.898;2023-03-01T00:18:11;99191.09;;;-4.60;68.80
70323;BME280;57735;56.264;43.898;2023-03-01T00:20:48;99189.56;;;-4.64;68.42
70323;BME280;57735;56.264;43.898;2023-03-01T00:23:22;99190.94;;;-4.72;68.50
70323;BME280;57735;56.264;43.898;2023-03-01T00:25:56;99177.47;;;-4.79;68.55
70323;BME280;57735;56.264;43.898;2023-03-01T00:28:26;99171.59;;;-4.82;68.36
70323;BME280;57735;56.264;43.898;2023-03-01T00:31:02;99180.50;;;-4.86;68.10
70323;BME280;57735;56.264;43.898;2023-03-01T00:33:33;99184.03;;;-4.87;68.13
70323;BME280;57735;56.264;43.898;2023-03-01T00:36:03;99179.75;;;-4.88;67.48
70323;BME280;57735;56.264;43.898;2023-03-01T00:38:35;99183.34;;;-4.91;67.41
70323;BME280;57735;56.264;43.898;2023-03-01T00:41:07;99185.88;;;-4.89;66.84
70323;BME280;57735;56.264;43.898;2023-03-01T00:43:38;99179.66;;;-4.87;66.53
70323;BME280;57735;56.264;43.898;2023-03-01T00:46:09;99181.97;;;-4.82;66.39
70323;BME280;57735;56.264;43.898;2023-03-01T00:48:40;99179.22;;;-4.79;66.03
70323;BME280;57735;56.264;43.898;2023-03-01T00:51:19;99179.88;;;-4.76;65.61
70323;BME280;57735;56.264;43.898;2023-03-01T00:53:50;99179.97;;;-4.77;64.89
70323;BME280;57735;56.264;43.898;2023-03-01T00:56:21;99181.81;;;-4.79;65.07
70323;BME280;57735;56.264;43.898;2023-03-01T00:58:52;99183.66;;;-4.81;64.46
70323;BME280;57735;56.264;43.898;2023-03-01T01:01:23;99181.50;;;-4.89;64.50
70323;BME280;57735;56.264;43.898;2023-03-01T01:03:56;99178.00;;;-4.88;64.32
70323;BME280;57735;56.264;43.898;2023-03-01T01:06:32;99172.78;;;-4.88;64.15
70323;BME280;57735;56.264;43.898;2023-03-01T01:09:05;99176.31;;;-4.89;63.88
70323;BME280;57735;56.264;43.898;2023-03-01T01:11:36;99171.38;;;-4.94;63.71
70323;BME280;57735;56.264;43.898;2023-03-01T01:14:07;99166.16;;;-4.94;63.79
70323;BME280;57735;56.264;43.898;2023-03-01T01:16:37;99164.56;;;-4.96;63.59
70323;BME280;57735;56.264;43.898;2023-03-01T01:19:09;99186.13;;;-4.94;63.70
70323;BME280;57735;56.264;43.898;2023-03-01T01:21:40;99181.00;;;-4.96;63.53
70323;BME280;57735;56.264;43.898;2023-03-01T01:24:13;99183.69;;;-4.97;63.20
70323;BME280;57735;56.264;43.898;2023-03-01T01:26:44;99192.31;;;-4.97;63.34
70323;BME280;57735;56.264;43.898;2023-03-01T01:29:14;99183.69;;;-4.97;63.64
70323;BME280;57735;56.264;43.898;2023-03-01T01:31:45;99179.50;;;-5.00;63.62
70323;BME280;57735;56.264;43.898;2023-03-01T01:34:17;99175.13;;;-4.99;63.98
70323;BME280;57735;56.264;43.898;2023-03-01T01:36:48;99181.25;;;-5.00;63.81
70323;BME280;57735;56.264;43.898;2023-03-01T01:39:22;99195.91;;;-4.99;63.55
70323;BME280;57735;56.264;43.898;2023-03-01T01:41:53;99189.81;;;-4.98;63.81
70323;BME280;57735;56.264;43.898;2023-03-01T01:44:25;99182.75;;;-4.96;63.93
70323;BME280;57735;56.264;43.898;2023-03-01T01:46:57;99188.03;;;-4.98;63.70
70323;BME280;57735;56.264;43.898;2023-03-01T01:49:35;99195.69;;;-4.95;63.79
70323;BME280;57735;56.264;43.898;2023-03-01T01:52:08;99198.19;;;-4.93;64.00
70323;BME280;57735;56.264;43.898;2023-03-01T01:54:42;99196.25;;;-4.89;63.90
70323;BME280;57735;56.264;43.898;2023-03-01T01:57:44;99179.84;;;-4.90;64.06
70323;BME280;57735;56.264;43.898;2023-03-01T02:00:14;99183.94;;;-4.86;63.67
70323;BME280;57735;56.264;43.898;2023-03-01T02:02:46;99170.00;;;-4.85;63.51
70323;BME280;57735;56.264;43.898;2023-03-01T02:05:26;99179.00;;;-4.90;63.46
70323;BME280;57735;56.264;43.898;2023-03-01T02:07:59;99194.75;;;-4.94;63.60
70323;BME280;57735;56.264;43.898;2023-03-01T02:10:30;99173.47;;;-5.00;63.38
70323;BME280;57735;56.264;43.898;2023-03-01T02:13:03;99185.81;;;-5.04;63.83
70323;BME280;57735;56.264;43.898;2023-03-01T02:15:34;99192.16;;;-5.09;63.50
70323;BME280;57735;56.264;43.898;2023-03-01T02:18:05;99197.69;;;-5.15;63.73
70323;BME280;57735;56.264;43.898;2023-03-01T02:23:21;99205.00;;;-5.38;64.02
70323;BME280;57735;56.264;43.898;2023-03-01T02:25:55;99210.75;;;-5.48;63.98
70323;BME280;57735;56.264;43.898;2023-03-01T02:28:31;99212.94;;;-5.56;64.56
70323;BME280;57735;56.264;43.898;2023-03-01T02:31:03;99212.56;;;-5.66;64.52
70323;BME280;57735;56.264;43.898;2023-03-01T02:33:58;99205.13;;;-5.72;65.12
70323;BME280;57735;56.264;43.898;2023-03-01T02:37:03;99215.97;;;-5.81;65.29
70323;BME280;57735;56.264;43.898;2023-03-01T02:39:28;99208.53;;;-5.87;65.39
70323;BME280;57735;56.264;43.898;2023-03-01T02:41:59;99219.94;;;-5.90;65.57
70323;BME280;57735;56.264;43.898;2023-03-01T02:44:30;99218.25;;;-5.91;65.70
70323;BME280;57735;56.264;43.898;2023-03-01T02:47:01;99216.72;;;-5.95;65.96
70323;BME280;57735;56.264;43.898;2023-03-01T02:49:35;99224.50;;;-5.95;66.26
70323;BME280;57735;56.264;43.898;2023-03-01T02:57:31;99221.22;;;-5.99;66.47
70323;BME280;57735;56.264;43.898;2023-03-01T03:00:07;99218.56;;;-5.97;66.60
70323;BME280;57735;56.264;43.898;2023-03-01T03:02:38;99213.44;;;-5.99;66.51
70323;BME280;57735;56.264;43.898;2023-03-01T03:05:13;99208.31;;;-6.00;67.04
70323;BME280;57735;56.264;43.898;2023-03-01T03:07:45;99213.44;;;-5.99;67.03
70323;BME280;57735;56.264;43.898;2023-03-01T03:10:18;99213.59;;;-6.02;66.86
70323;BME280;57735;56.264;43.898;2023-03-01T03:12:50;99210.16;;;-6.02;67.15
70323;BME280;57735;56.264;43.898;2023-03-01T03:15:22;99211.59;;;-5.96;67.10
70323;BME280;57735;56.264;43.898;2023-03-01T03:17:52;99220.16;;;-5.94;67.10
70323;BME280;57735;56.264;43.898;2023-03-01T03:20:24;99217.47;;;-5.93;67.06
70323;BME280;57735;56.264;43.898;2023-03-01T03:22:57;99215.13;;;-5.97;67.07
70323;BME280;57735;56.264;43.898;2023-03-01T03:25:28;99213.59;;;-6.02;67.22
70323;BME280;57735;56.264;43.898;2023-03-01T03:27:59;99220.72;;;-6.05;67.10
70323;BME280;57735;56.264;43.898;2023-03-01T03:30:30;99225.06;;;-6.06;67.15
70323;BME280;57735;56.264;43.898;2023-03-01T03:33:01;99210.41;;;-6.07;66.78
70323;BME280;57735;56.264;43.898;2023-03-01T03:35:33;99211.19;;;-6.05;66.72
70323;BME280;57735;56.264;43.898;2023-03-01T03:38:07;99218.63;;;-5.99;66.63
70323;BME280;57735;56.264;43.898;2023-03-01T03:40:49;99228.09;;;-5.97;66.51
70323;BME280;57735;56.264;43.898;2023-03-01T03:43:21;99221.06;;;-5.95;66.40
70323;BME280;57735;56.264;43.898;2023-03-01T03:45:52;99229.69;;;-5.95;66.14
70323;BME280;57735;56.264;43.898;2023-03-01T03:48:24;99221.06;;;-5.95;66.25
70323;BME280;57735;56.264;43.898;2023-03-01T03:50:55;99219.25;;;-5.93;65.94
70323;BME280;57735;56.264;43.898;2023-03-01T03:53:27;99219.31;;;-5.95;65.88
70323;BME280;57735;56.264;43.898;2023-03-01T03:55:57;99231.38;;;-5.94;65.89
70323;BME280;57735;56.264;43.898;2023-03-01T03:58:28;99222.66;;;-5.93;65.78
70323;BME280;57735;56.264;43.898;2023-03-01T04:00:59;99226.88;;;-5.90;65.84
70323;BME280;57735;56.264;43.898;2023-03-01T04:03:31;99230.22;;;-5.88;65.70
70323;BME280;57735;56.264;43.898;2023-03-01T04:06:04;99238.72;;;-5.86;65.53
70323;BME280;57735;56.264;43.898;2023-03-01T04:08:36;99236.88;;;-5.84;65.21
70323;BME280;57735;56.264;43.898;2023-03-01T04:11:06;99232.53;;;-5.84;64.93
70323;BME280;57735;56.264;43.898;2023-03-01T04:13:57;99240.09;;;-5.79;65.03
70323;BME280;57735;56.264;43.898;2023-03-01T04:16:28;99240.00;;;-5.78;65.10
70323;BME280;57735;56.264;43.898;2023-03-01T04:18:58;99239.78;;;-5.73;64.99
70323;BME280;57735;56.264;43.898;2023-03-01T04:21:30;99243.13;;;-5.71;64.93
70323;BME280;57735;56.264;43.898;2023-03-01T04:24:01;99256.00;;;-5.70;64.92
70323;BME280;57735;56.264;43.898;2023-03-01T04:26:33;99244.53;;;-5.66;65.11
70323;BME280;57735;56.264;43.898;2023-03-01T04:29:04;99239.88;;;-5.59;64.90
70323;BME280;57735;56.264;43.898;2023-03-01T04:31:34;99245.00;;;-5.57;64.78
70323;BME280;57735;56.264;43.898;2023-03-01T04:34:05;99241.06;;;-5.49;65.01
70323;BME280;57735;56.264;43.898;2023-03-01T04:36:35;99247.69;;;-5.43;64.18
70323;BME280;57735;56.264;43.898;2023-03-01T04:39:06;99247.47;;;-5.39;64.45
70323;BME280;57735;56.264;43.898;2023-03-01T04:41:42;99241.84;;;-5.31;64.17
70323;BME280;57735;56.264;43.898;2023-03-01T04:44:15;99247.56;;;-5.24;64.38
70323;BME280;57735;56.264;43.898;2023-03-01T04:46:48;99252.41;;;-5.18;64.02
70323;BME280;57735;56.264;43.898;2023-03-01T04:49:18;99262.47;;;-5.12;64.06
70323;BME280;57735;56.264;43.898;2023-03-01T04:51:49;99276.28;;;-5.12;64.11
70323;BME280;57735;56.264;43.898;2023-03-01T04:54:19;99265.22;;;-5.15;63.77
70323;BME280;57735;56.264;43.898;2023-03-01T04:56:50;99257.28;;;-5.12;63.89
70323;BME280;57735;56.264;43.898;2023-03-01T04:59:20;99264.00;;;-5.08;63.63
70323;BME280;57735;56.264;43.898;2023-03-01T05:01:54;99262.63;;;-5.00;63.83
70323;BME280;57735;56.264;43.898;2023-03-01T05:04:30;99261.72;;;-4.99;63.33
70323;BME280;57735;56.264;43.898;2023-03-01T05:07:01;99271.53;;;-4.88;63.36
70323;BME280;57735;56.264;43.898;2023-03-01T05:09:31;99267.81;;;-4.84;63.08
70323;BME280;57735;56.264;43.898;2023-03-01T05:12:02;99257.44;;;-4.84;62.79
70323;BME280;57735;56.264;43.898;2023-03-01T05:14:32;99254.84;;;-4.84;62.36
70323;BME280;57735;56.264;43.898;2023-03-01T05:17:03;99261.63;;;-4.81;62.58
70323;BME280;57735;56.264;43.898;2023-03-01T05:19:34;99269.25;;;-4.78;62.76
70323;BME280;57735;56.264;43.898;2023-03-01T05:22:04;99264.50;;;-4.86;62.82
70323;BME280;57735;56.264;43.898;2023-03-01T05:24:37;99276.47;;;-4.83;62.61
70323;BME280;57735;56.264;43.898;2023-03-01T05:27:08;99278.22;;;-4.84;62.67
70323;BME280;57735;56.264;43.898;2023-03-01T05:29:39;99277.66;;;-4.89;62.14
70323;BME280;57735;56.264;43.898;2023-03-01T05:32:09;99284.03;;;-4.95;62.66
70323;BME280;57735;56.264;43.898;2023-03-01T05:34:45;99279.41;;;-4.89;62.70
70323;BME280;57735;56.264;43.898;2023-03-01T05:37:16;99281.94;;;-4.88;62.69
70323;BME280;57735;56.264;43.898;2023-03-01T05:39:51;99283.41;;;-4.84;62.68
70323;BME280;57735;56.264;43.898;2023-03-01T05:42:22;99278.06;;;-4.81;62.39
70323;BME280;57735;56.264;43.898;2023-03-01T05:44:52;99283.09;;;-4.78;62.72
70323;BME280;57735;56.264;43.898;2023-03-01T05:47:23;99281.09;;;-4.73;62.00
70323;BME280;57735;56.264;43.898;2023-03-01T05:49:54;99279.25;;;-4.71;62.19
70323;BME280;57735;56.264;43.898;2023-03-01T05:52:24;99295.75;;;-4.72;61.88
70323;BME280;57735;56.264;43.898;2023-03-01T05:54:55;99283.31;;;-4.67;62.36
70323;BME280;57735;56.264;43.898;2023-03-01T05:57:27;99284.84;;;-4.63;61.48
70323;BME280;57735;56.264;43.898;2023-03-01T05:59:58;99301.53;;;-4.67;61.41
70323;BME280;57735;56.264;43.898;2023-03-01T06:02:28;99302.03;;;-4.76;61.79
70323;BME280;57735;56.264;43.898;2023-03-01T06:04:59;99292.34;;;-4.88;62.30
70323;BME280;57735;56.264;43.898;2023-03-01T06:07:30;99297.53;;;-5.04;62.45
70323;BME280;57735;56.264;43.898;2023-03-01T06:10:00;99298.75;;;-5.11;62.77
70323;BME280;57735;56.264;43.898;2023-03-01T06:12:33;99299.16;;;-5.18;62.89
70323;BME280;57735;56.264;43.898;2023-03-01T06:15:04;99302.59;;;-5.18;62.71
70323;BME280;57735;56.264;43.898;2023-03-01T06:17:36;99296.25;;;-5.12;62.54
70323;BME280;57735;56.264;43.898;2023-03-01T06:20:09;99306.22;;;-5.05;61.84
70323;BME280;57735;56.264;43.898;2023-03-01T06:22:40;99304.97;;;-4.98;62.35
70323;BME280;57735;56.264;43.898;2023-03-01T06:25:11;99305.97;;;-4.69;61.28
70323;BME280;57735;56.264;43.898;2023-03-01T06:27:42;99303.09;;;-4.48;61.17
70323;BME280;57735;56.264;43.898;2023-03-01T06:30:14;99299.47;;;-4.30;60.73
70323;BME280;57735;56.264;43.898;2023-03-01T06:32:47;99307.72;;;-4.08;59.58
70323;BME280;57735;56.264;43.898;2023-03-01T06:35:18;99299.41;;;-3.84;59.46
70323;BME280;57735;56.264;43.898;2023-03-01T06:37:49;99301.09;;;-3.83;59.07
70323;BME280;57735;56.264;43.898;2023-03-01T06:40:20;99302.13;;;-3.86;58.38
70323;BME280;57735;56.264;43.898;2023-03-01T06:42:51;99304.00;;;-3.74;58.65
70323;BME280;57735;56.264;43.898;2023-03-01T06:45:22;99287.75;;;-3.49;57.42
70323;BME280;57735;56.264;43.898;2023-03-01T06:48:05;99292.22;;;-3.37;56.89
70323;BME280;57735;56.264;43.898;2023-03-01T06:50:36;99294.91;;;-3.24;56.69
70323;BME280;57735;56.264;43.898;2023-03-01T06:53:08;99292.56;;;-3.14;55.92
70323;BME280;57735;56.264;43.898;2023-03-01T06:55:42;99290.56;;;-3.24;55.61
70323;BME280;57735;56.264;43.898;2023-03-01T06:58:12;99297.88;;;-3.30;55.73
70323;BME280;57735;56.264;43.898;2023-03-01T07:00:43;99294.09;;;-3.39;55.98
70323;BME280;57735;56.264;43.898;2023-03-01T07:03:14;99297.97;;;-3.32;56.37
70323;BME280;57735;56.264;43.898;2023-03-01T07:05:45;99295.94;;;-3.41;55.94
70323;BME280;57735;56.264;43.898;2023-03-01T07:08:16;99294.81;;;-3.51;56.12
70323;BME280;57735;56.264;43.898;2023-03-01T07:10:46;99284.94;;;-3.60;56.07
70323;BME280;57735;56.264;43.898;2023-03-01T07:13:17;99287.13;;;-3.53;56.08
70323;BME280;57735;56.264;43.898;2023-03-01T07:15:47;99299.00;;;-3.48;56.32
70323;BME280;57735;56.264;43.898;2023-03-01T07:18:18;99290.16;;;-3.46;55.60
70323;BME280;57735;56.264;43.898;2023-03-01T07:20:49;99289.81;;;-3.40;55.15
70323;BME280;57735;56.264;43.898;2023-03-01T07:23:19;99294.44;;;-3.17;55.67
70323;BME280;57735;56.264;43.898;2023-03-01T07:25:51;99283.72;;;-2.98;54.88
70323;BME280;57735;56.264;43.898;2023-03-01T07:28:22;99284.75;;;-2.86;54.22
70323;BME280;57735;56.264;43.898;2023-03-01T07:30:54;99291.97;;;-2.77;53.92
70323;BME280;57735;56.264;43.898;2023-03-01T07:33:24;99294.03;;;-2.82;53.39
70323;BME280;57735;56.264;43.898;2023-03-01T07:36:01;99302.44;;;-2.91;53.96
70323;BME280;57735;56.264;43.898;2023-03-01T07:38:37;99283.69;;;-2.84;54.33
70323;BME280;57735;56.264;43.898;2023-03-01T07:41:08;99287.13;;;-2.83;54.57
70323;BME280;57735;56.264;43.898;2023-03-01T07:43:38;99295.00;;;-2.56;54.40
70323;BME280;57735;56.264;43.898;2023-03-01T07:46:09;99284.38;;;-2.53;53.91
70323;BME280;57735;56.264;43.898;2023-03-01T07:48:40;99286.28;;;-2.42;53.27
70323;BME280;57735;56.264;43.898;2023-03-01T07:51:10;99288.28;;;-2.33;52.78
70323;BME280;57735;56.264;43.898;2023-03-01T07:53:45;99297.88;;;-2.34;52.46
70323;BME280;57735;56.264;43.898;2023-03-01T07:56:16;99287.34;;;-2.32;53.31
70323;BME280;57735;56.264;43.898;2023-03-01T07:58:48;99295.56;;;-2.12;53.09
70323;BME280;57735;56.264;43.898;2023-03-01T08:01:19;99290.97;;;-2.08;52.84
70323;BME280;57735;56.264;43.898;2023-03-01T08:03:52;99291.47;;;-2.16;51.81
70323;BME280;57735;56.264;43.898;2023-03-01T08:06:23;99299.94;;;-2.12;51.92
70323;BME280;57735;56.264;43.898;2023-03-01T08:08:53;99287.31;;;-2.18;51.26
70323;BME280;57735;56.264;43.898;2023-03-01T08:11:28;99297.41;;;-2.26;51.77
70323;BME280;57735;56.264;43.898;2023-03-01T08:13:59;99304.75;;;-2.19;51.92
70323;BME280;57735;56.264;43.898;2023-03-01T08:16:29;99288.19;;;-2.32;51.74
70323;BME280;57735;56.264;43.898;2023-03-01T08:19:05;99312.91;;;-2.37;51.79
70323;BME280;57735;56.264;43.898;2023-03-01T08:21:36;99308.41;;;-2.62;51.82
70323;BME280;57735;56.264;43.898;2023-03-01T08:24:07;99312.28;;;-2.82;52.46
70323;BME280;57735;56.264;43.898;2023-03-01T08:26:37;99313.59;;;-2.89;53.02
70323;BME280;57735;56.264;43.898;2023-03-01T08:29:08;99311.38;;;-2.95;53.38
70323;BME280;57735;56.264;43.898;2023-03-01T08:31:39;99319.38;;;-2.98;53.50
70323;BME280;57735;56.264;43.898;2023-03-01T08:34:11;99347.78;;;-2.94;52.88
70323;BME280;57735;56.264;43.898;2023-03-01T08:36:43;99325.91;;;-2.91;53.13
70323;BME280;57735;56.264;43.898;2023-03-01T08:39:15;99321.13;;;-2.85;53.13
70323;BME280;57735;56.264;43.898;2023-03-01T08:41:46;99340.88;;;-2.81;52.82
70323;BME280;57735;56.264;43.898;2023-03-01T08:44:18;99336.66;;;-2.83;53.10
70323;BME280;57735;56.264;43.898;2023-03-01T08:46:57;99361.63;;;-2.79;52.44
70323;BME280;57735;56.264;43.898;2023-03-01T08:49:28;99351.38;;;-2.82;52.37
70323;BME280;57735;56.264;43.898;2023-03-01T08:51:59;99345.06;;;-2.78;51.24
70323;BME280;57735;56.264;43.898;2023-03-01T08:54:30;99345.63;;;-2.73;50.89
70323;BME280;57735;56.264;43.898;2023-03-01T08:57:02;99338.97;;;-2.64;51.34
70323;BME280;57735;56.264;43.898;2023-03-01T08:59:32;99354.25;;;-2.58;51.15
70323;BME280;57735;56.264;43.898;2023-03-01T09:02:14;99351.66;;;-2.72;51.17
70323;BME280;57735;56.264;43.898;2023-03-01T09:04:45;99345.63;;;-2.73;51.79
70323;BME280;57735;56.264;43.898;2023-03-01T09:07:16;99339.25;;;-2.55;51.64
70323;BME280;57735;56.264;43.898;2023-03-01T09:09:47;99352.69;;;-2.34;50.92
70323;BME280;57735;56.264;43.898;2023-03-01T09:12:19;99351.81;;;-2.20;50.86
70323;BME280;57735;56.264;43.898;2023-03-01T09:14:50;99356.63;;;-2.14;50.71
70323;BME280;57735;56.264;43.898;2023-03-01T09:17:21;99345.13;;;-2.24;51.03
70323;BME280;57735;56.264;43.898;2023-03-01T09:19:55;99341.66;;;-2.25;50.93
70323;BME280;57735;56.264;43.898;2023-03-01T09:22:26;99354.34;;;-2.33;51.06
70323;BME280;57735;56.264;43.898;2023-03-01T09:24:56;99357.28;;;-2.37;51.32
70323;BME280;57735;56.264;43.898;2023-03-01T09:27:29;99354.59;;;-2.50;51.79
70323;BME280;57735;56.264;43.898;2023-03-01T09:29:59;99337.81;;;-2.46;51.93
70323;BME280;57735;56.264;43.898;2023-03-01T09:32:31;99348.25;;;-2.46;52.13
70323;BME280;57735;56.264;43.898;2023-03-01T09:35:01;99335.38;;;-2.35;52.73
70323;BME280;57735;56.264;43.898;2023-03-01T09:37:35;99351.66;;;-2.04;52.46
70323;BME280;57735;56.264;43.898;2023-03-01T09:40:15;99360.56;;;-1.94;50.89
70323;BME280;57735;56.264;43.898;2023-03-01T09:42:49;99354.09;;;-2.01;50.73
70323;BME280;57735;56.264;43.898;2023-03-01T09:45:25;99346.25;;;-2.01;51.18
70323;BME280;57735;56.264;43.898;2023-03-01T09:47:56;99341.22;;;-2.04;51.81
70323;BME280;57735;56.264;43.898;2023-03-01T09:50:28;99347.47;;;-2.07;51.56
70323;BME280;57735;56.264;43.898;2023-03-01T09:53:07;99349.72;;;-2.15;50.96
70323;BME280;57735;56.264;43.898;2023-03-01T09:55:43;99329.25;;;-2.21;51.77
70323;BME280;57735;56.264;43.898;2023-03-01T10:00:50;99328.00;;;-1.89;51.31
70323;BME280;57735;56.264;43.898;2023-03-01T10:03:23;99330.97;;;-1.68;50.60
70323;BME280;57735;56.264;43.898;2023-03-01T10:08:42;99319.38;;;-1.51;48.59
70323;BME280;57735;56.264;43.898;2023-03-01T10:11:23;99331.28;;;-1.72;48.61
70323;BME280;57735;56.264;43.898;2023-03-01T10:13:58;99335.75;;;-1.62;48.86
70323;BME280;57735;56.264;43.898;2023-03-01T10:19:12;99335.66;;;-1.73;49.34
70323;BME280;57735;56.264;43.898;2023-03-01T10:21:45;99347.41;;;-1.93;49.99
70323;BME280;57735;56.264;43.898;2023-03-01T10:24:17;99344.22;;;-2.11;50.25
70323;BME280;57735;56.264;43.898;2023-03-01T10:26:55;99353.94;;;-2.39;50.46
70323;BME280;57735;56.264;43.898;2023-03-01T10:32:28;99347.75;;;-2.12;50.71
70323;BME280;57735;56.264;43.898;2023-03-01T10:34:58;99348.44;;;-1.95;50.59
70323;BME280;57735;56.264;43.898;2023-03-01T10:37:33;99357.00;;;-1.93;50.49
70323;BME280;57735;56.264;43.898;2023-03-01T10:40:05;99343.41;;;-1.98;49.95
70323;BME280;57735;56.264;43.898;2023-03-01T10:42:45;99340.28;;;-2.03;50.17
70323;BME280;57735;56.264;43.898;2023-03-01T10:53:37;99340.50;;;-1.94;50.04
70323;BME280;57735;56.264;43.898;2023-03-01T10:56:09;99340.81;;;-1.98;50.23
70323;BME280;57735;56.264;43.898;2023-03-01T10:59:03;99362.22;;;-2.06;49.55
70323;BME280;57735;56.264;43.898;2023-03-01T11:01:32;99343.34;;;-2.24;50.11
70323;BME280;57735;56.264;43.898;2023-03-01T11:06:37;99338.16;;;-2.11;50.64
70323;BME280;57735;56.264;43.898;2023-03-01T11:11:45;99340.47;;;-2.06;50.64
70323;BME280;57735;56.264;43.898;2023-03-01T11:14:17;99345.25;;;-2.13;50.66
70323;BME280;57735;56.264;43.898;2023-03-01T11:16:58;99335.50;;;-2.24;50.34
70323;BME280;57735;56.264;43.898;2023-03-01T11:19:29;99337.28;;;-2.24;50.37
70323;BME280;57735;56.264;43.898;2023-03-01T11:24:43;99343.63;;;-2.01;49.94
70323;BME280;57735;56.264;43.898;2023-03-01T11:27:16;99340.19;;;-2.02;49.55
70323;BME280;57735;56.264;43.898;2023-03-01T11:29:52;99363.00;;;-2.18;48.58
70323;BME280;57735;56.264;43.898;2023-03-01T11:32:26;99346.44;;;-2.31;48.98
70323;BME280;57735;56.264;43.898;2023-03-01T11:35:01;99348.09;;;-2.30;49.27
70323;BME280;57735;56.264;43.898;2023-03-01T11:37:41;99356.53;;;-2.39;49.32
70323;BME280;57735;56.264;43.898;2023-03-01T11:40:57;99346.19;;;-2.41;49.94
70323;BME280;57735;56.264;43.898;2023-03-01T11:57:04;99345.84;;;-2.22;49.37
70323;BME280;57735;56.264;43.898;2023-03-01T12:05:10;99351.66;;;-2.31;48.61
70323;BME280;57735;56.264;43.898;2023-03-01T12:50:46;99371.09;;;-2.64;49.13
70323;BME280;57735;56.264;43.898;2023-03-01T12:53:39;99371.28;;;-2.67;49.17
70323;BME280;57735;56.264;43.898;2023-03-01T12:56:14;99361.25;;;-2.73;48.55
70323;BME280;57735;56.264;43.898;2023-03-01T12:58:49;99365.63;;;-2.73;48.71
70323;BME280;57735;56.264;43.898;2023-03-01T13:01:35;99387.16;;;-2.70;48.71
70323;BME280;57735;56.264;43.898;2023-03-01T13:06:44;99356.59;;;-2.82;49.31
70323;BME280;57735;56.264;43.898;2023-03-01T13:15:55;99361.25;;;-2.73;49.17
70323;BME280;57735;56.264;43.898;2023-03-01T13:28:40;99356.69;;;-2.69;49.21
70323;BME280;57735;56.264;43.898;2023-03-01T13:33:46;99372.72;;;-2.75;49.15
70323;BME280;57735;56.264;43.898;2023-03-01T13:39:03;99368.78;;;-2.83;49.22
70323;BME280;57735;56.264;43.898;2023-03-01T13:49:48;99363.31;;;-2.92;49.59
70323;BME280;57735;56.264;43.898;2023-03-01T13:54:51;99368.38;;;-3.03;49.88
70323;BME280;57735;56.264;43.898;2023-03-01T13:57:24;99360.63;;;-3.05;50.74
70323;BME280;57735;56.264;43.898;2023-03-01T13:59:56;99365.00;;;-3.05;50.64
70323;BME280;57735;56.264;43.898;2023-03-01T14:02:30;99374.59;;;-3.06;50.89
70323;BME280;57735;56.264;43.898;2023-03-01T14:05:01;99364.25;;;-3.07;50.93
70323;BME280;57735;56.264;43.898;2023-03-01T14:07:33;99371.50;;;-3.12;50.96
70323;BME280;57735;56.264;43.898;2023-03-01T14:10:07;99368.25;;;-3.16;51.10
70323;BME280;57735;56.264;43.898;2023-03-01T14:15:32;99366.38;;;-3.14;51.19
70323;BME280;57735;56.264;43.898;2023-03-01T14:18:05;99363.69;;;-3.12;51.44
70323;BME280;57735;56.264;43.898;2023-03-01T14:20:42;99367.22;;;-3.13;51.34
70323;BME280;57735;56.264;43.898;2023-03-01T14:23:14;99367.22;;;-3.13;51.68
70323;BME280;57735;56.264;43.898;2023-03-01T14:25:56;99372.63;;;-3.17;51.35
70323;BME280;57735;56.264;43.898;2023-03-01T14:28:28;99364.78;;;-3.17;51.77
70323;BME280;57735;56.264;43.898;2023-03-01T14:31:00;99364.25;;;-3.22;51.60
70323;BME280;57735;56.264;43.898;2023-03-01T14:33:32;99370.50;;;-3.24;51.66
70323;BME280;57735;56.264;43.898;2023-03-01T14:36:05;99368.16;;;-3.29;51.70
70323;BME280;57735;56.264;43.898;2023-03-01T14:38:40;99370.75;;;-3.29;51.86
70323;BME280;57735;56.264;43.898;2023-03-01T14:43:46;99374.38;;;-3.31;52.12
70323;BME280;57735;56.264;43.898;2023-03-01T14:46:23;99381.44;;;-3.33;52.29
70323;BME280;57735;56.264;43.898;2023-03-01T14:48:56;99370.19;;;-3.34;52.38
70323;BME280;57735;56.264;43.898;2023-03-01T14:51:28;99377.44;;;-3.39;52.48
70323;BME280;57735;56.264;43.898;2023-03-01T14:53:59;99377.63;;;-3.42;52.21
70323;BME280;57735;56.264;43.898;2023-03-01T14:56:29;99378.72;;;-3.46;52.19
70323;BME280;57735;56.264;43.898;2023-03-01T14:59:13;99377.13;;;-3.48;52.44
70323;BME280;57735;56.264;43.898;2023-03-01T15:01:43;99382.25;;;-3.47;52.46
70323;BME280;57735;56.264;43.898;2023-03-01T15:04:14;99385.03;;;-3.50;52.43
70323;BME280;57735;56.264;43.898;2023-03-01T15:06:54;99411.47;;;-3.56;51.87
70323;BME280;57735;56.264;43.898;2023-03-01T15:09:26;99392.66;;;-3.61;52.03
70323;BME280;57735;56.264;43.898;2023-03-01T15:11:56;99400.09;;;-3.69;51.95
70323;BME280;57735;56.264;43.898;2023-03-01T15:20:04;99398.44;;;-3.86;52.44
70323;BME280;57735;56.264;43.898;2023-03-01T15:22:40;99398.78;;;-3.92;52.60
70323;BME280;57735;56.264;43.898;2023-03-01T15:25:19;99402.31;;;-3.93;52.45
70323;BME280;57735;56.264;43.898;2023-03-01T15:27:51;99403.31;;;-3.96;52.07
70323;BME280;57735;56.264;43.898;2023-03-01T15:30:22;99403.22;;;-3.94;52.47
70323;BME280;57735;56.264;43.898;2023-03-01T15:35:50;99413.72;;;-3.96;52.41
70323;BME280;57735;56.264;43.898;2023-03-01T15:38:25;99428.25;;;-3.92;52.89
70323;BME280;57735;56.264;43.898;2023-03-01T15:40:56;99407.34;;;-3.90;52.44
70323;BME280;57735;56.264;43.898;2023-03-01T15:43:41;99433.28;;;-3.89;52.43
70323;BME280;57735;56.264;43.898;2023-03-01T15:46:15;99404.81;;;-3.92;52.51